Lumberton, North Carolina
Current Conditions -  °F | °C
As of 8:54 PM on Friday 21 Nov 2014 (Local Time) from KLBT Reporting Station
Clear Clear  
Wind Chill: 37°   Ceiling: Unl
Heat Index: 41°   Visibility: 10mi
Dew Point: 12°   Wind: 6mph
Humidity: 31%   Direction: 70°ENE
Pressure: 30.51"   Gusts: NA
Location:  34.62°N, 79.01°W
Report Text: KLBT 220154Z AUTO 07005KT 10SM CLR 05/M11 A3051 RMK AO2 SLP333 T00501111
Loading
Personal Weather Stations






























Interactive Weather Map New forecast layout! Learn more

10-Day Weather Forecast

Advertisements
Track Severe Weather on mobile